sensor_id;sensor_type;location;lat;lon;timestamp;temperature;humidity
47861;HTU21D;33620;52.340;5.984;2023-03-23T00:02:19;11.73;93.97
47861;HTU21D;33620;52.340;5.984;2023-03-23T00:04:44;11.75;93.98
47861;HTU21D;33620;52.340;5.984;2023-03-23T00:07:09;11.75;93.89
47861;HTU21D;33620;52.340;5.984;2023-03-23T00:09:37;11.72;93.72
47861;HTU21D;33620;52.340;5.984;2023-03-23T00:12:07;11.74;93.76
47861;HTU21D;33620;52.340;5.984;2023-03-23T00:14:32;11.73;93.72
47861;HTU21D;33620;52.340;5.984;2023-03-23T00:17:09;11.72;93.81
47861;HTU21D;33620;52.340;5.984;2023-03-23T00:19:39;11.74;93.85
47861;HTU21D;33620;52.340;5.984;2023-03-23T00:22:14;11.76;93.91
47861;HTU21D;33620;52.340;5.984;2023-03-23T00:24:40;11.72;93.81
47861;HTU21D;33620;52.340;5.984;2023-03-23T00:27:05;11.67;92.48
47861;HTU21D;33620;52.340;5.984;2023-03-23T00:29:30;11.71;91.78
47861;HTU21D;33620;52.340;5.984;2023-03-23T00:31:57;11.77;92.05
47861;HTU21D;33620;52.340;5.984;2023-03-23T00:34:22;11.79;92.37
47861;HTU21D;33620;52.340;5.984;2023-03-23T00:36:50;11.78;92.66
47861;HTU21D;33620;52.340;5.984;2023-03-23T00:39:16;11.76;92.88
47861;HTU21D;33620;52.340;5.984;2023-03-23T00:41:43;11.75;93.08
47861;HTU21D;33620;52.340;5.984;2023-03-23T00:44:08;11.74;93.24
47861;HTU21D;33620;52.340;5.984;2023-03-23T00:46:34;11.74;93.27
47861;HTU21D;33620;52.340;5.984;2023-03-23T00:48:59;11.76;93.14
47861;HTU21D;33620;52.340;5.984;2023-03-23T00:51:24;11.75;92.98
47861;HTU21D;33620;52.340;5.984;2023-03-23T00:53:50;11.75;92.92
47861;HTU21D;33620;52.340;5.984;2023-03-23T00:56:15;11.76;92.84
47861;HTU21D;33620;52.340;5.984;2023-03-23T00:58:41;11.75;92.31
47861;HTU21D;33620;52.340;5.984;2023-03-23T01:01:06;11.78;92.27
47861;HTU21D;33620;52.340;5.984;2023-03-23T01:03:32;11.77;92.15
47861;HTU21D;33620;52.340;5.984;2023-03-23T01:06:03;11.79;92.08
47861;HTU21D;33620;52.340;5.984;2023-03-23T01:08:28;11.79;91.83
47861;HTU21D;33620;52.340;5.984;2023-03-23T01:11:01;11.81;91.83
47861;HTU21D;33620;52.340;5.984;2023-03-23T01:13:28;11.81;91.82
47861;HTU21D;33620;52.340;5.984;2023-03-23T01:15:53;11.77;91.67
47861;HTU21D;33620;52.340;5.984;2023-03-23T01:18:19;11.82;91.56
47861;HTU21D;33620;52.340;5.984;2023-03-23T01:20:44;11.79;91.18
47861;HTU21D;33620;52.340;5.984;2023-03-23T01:23:09;11.79;91.07
47861;HTU21D;33620;52.340;5.984;2023-03-23T01:25:35;11.81;91.06
47861;HTU21D;33620;52.340;5.984;2023-03-23T01:28:01;11.79;90.92
47861;HTU21D;33620;52.340;5.984;2023-03-23T01:30:26;11.81;90.88
47861;HTU21D;33620;52.340;5.984;2023-03-23T01:32:52;11.78;90.45
47861;HTU21D;33620;52.340;5.984;2023-03-23T01:35:17;11.79;90.26
47861;HTU21D;33620;52.340;5.984;2023-03-23T01:37:43;11.79;90.20
47861;HTU21D;33620;52.340;5.984;2023-03-23T01:40:09;11.77;89.78
47861;HTU21D;33620;52.340;5.984;2023-03-23T01:42:35;11.78;89.43
47861;HTU21D;33620;52.340;5.984;2023-03-23T01:47:49;11.79;88.93
47861;HTU21D;33620;52.340;5.984;2023-03-23T01:50:21;11.82;89.00
47861;HTU21D;33620;52.340;5.984;2023-03-23T01:52:52;11.84;89.09
47861;HTU21D;33620;52.340;5.984;2023-03-23T01:55:18;11.83;88.93
47861;HTU21D;33620;52.340;5.984;2023-03-23T01:57:43;11.82;88.89
47861;HTU21D;33620;52.340;5.984;2023-03-23T02:00:09;11.85;89.00
47861;HTU21D;33620;52.340;5.984;2023-03-23T02:02:41;11.85;89.15
47861;HTU21D;33620;52.340;5.984;2023-03-23T02:05:08;11.85;89.23
47861;HTU21D;33620;52.340;5.984;2023-03-23T02:07:35;11.83;89.15
47861;HTU21D;33620;52.340;5.984;2023-03-23T02:10:00;11.83;89.05
47861;HTU21D;33620;52.340;5.984;2023-03-23T02:12:26;11.84;89.01
47861;HTU21D;33620;52.340;5.984;2023-03-23T02:14:51;11.84;88.84
47861;HTU21D;33620;52.340;5.984;2023-03-23T02:30:45;11.86;88.94
47861;HTU21D;33620;52.340;5.984;2023-03-23T02:35:44;11.87;88.76
47861;HTU21D;33620;52.340;5.984;2023-03-23T02:40:39;11.88;88.66
47861;HTU21D;33620;52.340;5.984;2023-03-23T02:43:10;11.89;88.66
47861;HTU21D;33620;52.340;5.984;2023-03-23T02:45:37;11.88;88.67
47861;HTU21D;33620;52.340;5.984;2023-03-23T02:48:03;11.90;88.62
47861;HTU21D;33620;52.340;5.984;2023-03-23T02:50:30;11.91;88.71
47861;HTU21D;33620;52.340;5.984;2023-03-23T02:52:57;11.89;88.67
47861;HTU21D;33620;52.340;5.984;2023-03-23T02:55:24;11.90;88.75
47861;HTU21D;33620;52.340;5.984;2023-03-23T02:57:50;11.92;88.77
47861;HTU21D;33620;52.340;5.984;2023-03-23T03:00:16;11.94;88.92
47861;HTU21D;33620;52.340;5.984;2023-03-23T03:02:52;11.94;89.00
47861;HTU21D;33620;52.340;5.984;2023-03-23T03:10:32;11.93;89.12
47861;HTU21D;33620;52.340;5.984;2023-03-23T03:13:03;11.92;89.10
47861;HTU21D;33620;52.340;5.984;2023-03-23T03:15:36;11.97;89.21
47861;HTU21D;33620;52.340;5.984;2023-03-23T03:21:06;11.99;89.15
47861;HTU21D;33620;52.340;5.984;2023-03-23T03:23:33;11.98;89.04
47861;HTU21D;33620;52.340;5.984;2023-03-23T03:25:59;11.99;89.05
47861;HTU21D;33620;52.340;5.984;2023-03-23T03:28:25;11.98;89.11
47861;HTU21D;33620;52.340;5.984;2023-03-23T03:30:52;11.99;89.05
47861;HTU21D;33620;52.340;5.984;2023-03-23T03:33:19;12.01;89.11
47861;HTU21D;33620;52.340;5.984;2023-03-23T03:35:45;12.01;88.96
47861;HTU21D;33620;52.340;5.984;2023-03-23T03:38:11;12.05;88.90
47861;HTU21D;33620;52.340;5.984;2023-03-23T03:40:37;12.04;88.88
47861;HTU21D;33620;52.340;5.984;2023-03-23T03:43:03;12.06;88.77
47861;HTU21D;33620;52.340;5.984;2023-03-23T03:45:29;12.06;88.60
47861;HTU21D;33620;52.340;5.984;2023-03-23T03:47:55;12.07;88.57
47861;HTU21D;33620;52.340;5.984;2023-03-23T03:50:20;12.08;88.38
47861;HTU21D;33620;52.340;5.984;2023-03-23T03:52:45;12.07;88.31
47861;HTU21D;33620;52.340;5.984;2023-03-23T03:55:11;12.07;88.20
47861;HTU21D;33620;52.340;5.984;2023-03-23T03:57:36;12.10;87.89
47861;HTU21D;33620;52.340;5.984;2023-03-23T04:00:02;12.11;87.32
47861;HTU21D;33620;52.340;5.984;2023-03-23T04:02:38;12.16;87.45
47861;HTU21D;33620;52.340;5.984;2023-03-23T04:05:04;12.13;87.07
47861;HTU21D;33620;52.340;5.984;2023-03-23T04:07:29;12.15;86.94
47861;HTU21D;33620;52.340;5.984;2023-03-23T04:09:54;12.15;86.69
47861;HTU21D;33620;52.340;5.984;2023-03-23T04:12:20;12.18;86.59
47861;HTU21D;33620;52.340;5.984;2023-03-23T04:14:45;12.17;86.29
47861;HTU21D;33620;52.340;5.984;2023-03-23T04:17:10;12.16;85.90
47861;HTU21D;33620;52.340;5.984;2023-03-23T04:19:36;12.23;85.80
47861;HTU21D;33620;52.340;5.984;2023-03-23T04:22:02;12.27;85.90
47861;HTU21D;33620;52.340;5.984;2023-03-23T04:24:30;12.20;85.98
47861;HTU21D;33620;52.340;5.984;2023-03-23T04:27:00;12.16;85.74
47861;HTU21D;33620;52.340;5.984;2023-03-23T04:29:31;12.21;85.74
47861;HTU21D;33620;52.340;5.984;2023-03-23T04:32:01;12.18;85.64
47861;HTU21D;33620;52.340;5.984;2023-03-23T04:34:27;12.25;85.59
47861;HTU21D;33620;52.340;5.984;2023-03-23T04:37:00;12.29;85.70
47861;HTU21D;33620;52.340;5.984;2023-03-23T04:39:28;12.27;85.75
47861;HTU21D;33620;52.340;5.984;2023-03-23T04:41:56;12.26;85.45
47861;HTU21D;33620;52.340;5.984;2023-03-23T04:44:28;12.31;85.48
47861;HTU21D;33620;52.340;5.984;2023-03-23T04:46:57;12.32;85.64
47861;HTU21D;33620;52.340;5.984;2023-03-23T04:49:24;12.29;85.67
47861;HTU21D;33620;52.340;5.984;2023-03-23T04:51:57;12.32;85.94
47861;HTU21D;33620;52.340;5.984;2023-03-23T04:54:25;12.27;85.88
47861;HTU21D;33620;52.340;5.984;2023-03-23T04:56:54;12.32;86.08
47861;HTU21D;33620;52.340;5.984;2023-03-23T04:59:22;12.31;86.04
47861;HTU21D;33620;52.340;5.984;2023-03-23T05:02:04;12.29;85.24
47861;HTU21D;33620;52.340;5.984;2023-03-23T05:04:39;12.33;85.19
47861;HTU21D;33620;52.340;5.984;2023-03-23T05:07:08;12.34;84.66
47861;HTU21D;33620;52.340;5.984;2023-03-23T05:09:35;12.37;84.84
47861;HTU21D;33620;52.340;5.984;2023-03-23T05:12:07;12.34;84.11
47861;HTU21D;33620;52.340;5.984;2023-03-23T05:14:33;12.35;84.03
47861;HTU21D;33620;52.340;5.984;2023-03-23T05:16:58;12.43;83.60
47861;HTU21D;33620;52.340;5.984;2023-03-23T05:19:24;12.42;83.36
47861;HTU21D;33620;52.340;5.984;2023-03-23T05:21:49;12.42;83.00
47861;HTU21D;33620;52.340;5.984;2023-03-23T05:24:14;12.47;82.95
47861;HTU21D;33620;52.340;5.984;2023-03-23T05:26:40;12.43;82.33
47861;HTU21D;33620;52.340;5.984;2023-03-23T05:29:05;12.49;82.67
47861;HTU21D;33620;52.340;5.984;2023-03-23T05:31:30;12.48;82.66
47861;HTU21D;33620;52.340;5.984;2023-03-23T05:33:56;12.45;82.42
47861;HTU21D;33620;52.340;5.984;2023-03-23T05:36:21;12.48;82.70
47861;HTU21D;33620;52.340;5.984;2023-03-23T05:38:48;12.45;84.41
47861;HTU21D;33620;52.340;5.984;2023-03-23T05:41:14;12.31;86.00
47861;HTU21D;33620;52.340;5.984;2023-03-23T05:43:40;12.19;85.80
47861;HTU21D;33620;52.340;5.984;2023-03-23T05:46:05;12.20;85.77
47861;HTU21D;33620;52.340;5.984;2023-03-23T05:48:32;12.14;85.80
47861;HTU21D;33620;52.340;5.984;2023-03-23T05:50:58;12.17;85.49
47861;HTU21D;33620;52.340;5.984;2023-03-23T05:53:23;12.16;85.35
47861;HTU21D;33620;52.340;5.984;2023-03-23T05:55:49;12.12;84.93
47861;HTU21D;33620;52.340;5.984;2023-03-23T05:58:14;12.15;84.72
47861;HTU21D;33620;52.340;5.984;2023-03-23T06:00:40;12.13;85.65
47861;HTU21D;33620;52.340;5.984;2023-03-23T06:03:06;11.88;87.92
47861;HTU21D;33620;52.340;5.984;2023-03-23T06:05:31;11.78;90.30
47861;HTU21D;33620;52.340;5.984;2023-03-23T06:07:57;11.64;90.63
47861;HTU21D;33620;52.340;5.984;2023-03-23T06:10:23;11.60;91.27
47861;HTU21D;33620;52.340;5.984;2023-03-23T06:12:48;11.27;91.31
47861;HTU21D;33620;52.340;5.984;2023-03-23T06:15:14;11.24;91.96
47861;HTU21D;33620;52.340;5.984;2023-03-23T06:17:39;11.18;91.88
47861;HTU21D;33620;52.340;5.984;2023-03-23T06:20:05;11.13;91.75
47861;HTU21D;33620;52.340;5.984;2023-03-23T06:22:35;11.15;90.99
47861;HTU21D;33620;52.340;5.984;2023-03-23T06:25:01;11.17;91.52
47861;HTU21D;33620;52.340;5.984;2023-03-23T06:27:26;11.20;92.08
47861;HTU21D;33620;52.340;5.984;2023-03-23T06:29:52;11.22;92.40
47861;HTU21D;33620;52.340;5.984;2023-03-23T06:32:17;11.25;92.60
47861;HTU21D;33620;52.340;5.984;2023-03-23T06:34:42;11.20;93.24
47861;HTU21D;33620;52.340;5.984;2023-03-23T06:37:08;11.16;93.86
47861;HTU21D;33620;52.340;5.984;2023-03-23T06:39:34;11.18;93.91
47861;HTU21D;33620;52.340;5.984;2023-03-23T06:42:00;11.09;93.92
47861;HTU21D;33620;52.340;5.984;2023-03-23T06:44:26;11.04;94.40
47861;HTU21D;33620;52.340;5.984;2023-03-23T06:46:51;11.00;94.64
47861;HTU21D;33620;52.340;5.984;2023-03-23T06:49:16;10.98;94.94
47861;HTU21D;33620;52.340;5.984;2023-03-23T06:51:42;10.95;94.85
47861;HTU21D;33620;52.340;5.984;2023-03-23T06:54:07;11.02;94.96
47861;HTU21D;33620;52.340;5.984;2023-03-23T06:56:32;10.97;95.17
47861;HTU21D;33620;52.340;5.984;2023-03-23T06:58:58;11.02;95.16
47861;HTU21D;33620;52.340;5.984;2023-03-23T07:01:23;11.03;95.26
47861;HTU21D;33620;52.340;5.984;2023-03-23T07:03:48;10.92;94.85
47861;HTU21D;33620;52.340;5.984;2023-03-23T07:06:14;11.00;95.18
47861;HTU21D;33620;52.340;5.984;2023-03-23T07:08:40;10.99;95.04
47861;HTU21D;33620;52.340;5.984;2023-03-23T07:11:05;10.90;94.33
47861;HTU21D;33620;52.340;5.984;2023-03-23T07:13:31;10.98;93.88
47861;HTU21D;33620;52.340;5.984;2023-03-23T07:15:56;10.94;93.86
47861;HTU21D;33620;52.340;5.984;2023-03-23T07:18:23;10.82;92.69
47861;HTU21D;33620;52.340;5.984;2023-03-23T07:20:51;10.89;93.08
47861;HTU21D;33620;52.340;5.984;2023-03-23T07:23:17;10.88;92.78
47861;HTU21D;33620;52.340;5.984;2023-03-23T07:25:43;10.86;93.04
47861;HTU21D;33620;52.340;5.984;2023-03-23T07:28:09;10.87;93.37
47861;HTU21D;33620;52.340;5.984;2023-03-23T07:30:35;10.92;93.51
47861;HTU21D;33620;52.340;5.984;2023-03-23T07:33:03;10.97;93.78
47861;HTU21D;33620;52.340;5.984;2023-03-23T07:35:29;11.02;94.11
47861;HTU21D;33620;52.340;5.984;2023-03-23T07:37:55;10.97;94.34
47861;HTU21D;33620;52.340;5.984;2023-03-23T07:40:20;10.99;94.47
47861;HTU21D;33620;52.340;5.984;2023-03-23T07:42:46;11.09;94.56
47861;HTU21D;33620;52.340;5.984;2023-03-23T07:45:16;11.01;94.43
47861;HTU21D;33620;52.340;5.984;2023-03-23T07:47:41;11.10;94.56
47861;HTU21D;33620;52.340;5.984;2023-03-23T07:50:07;11.11;94.63
47861;HTU21D;33620;52.340;5.984;2023-03-23T07:52:33;11.11;94.43
47861;HTU21D;33620;52.340;5.984;2023-03-23T07:54:58;11.11;94.47
47861;HTU21D;33620;52.340;5.984;2023-03-23T07:57:24;11.12;94.65
47861;HTU21D;33620;52.340;5.984;2023-03-23T07:59:50;11.22;94.64
47861;HTU21D;33620;52.340;5.984;2023-03-23T08:02:15;11.20;94.94
47861;HTU21D;33620;52.340;5.984;2023-03-23T08:04:41;11.18;94.59
47861;HTU21D;33620;52.340;5.984;2023-03-23T08:07:07;11.34;95.19
47861;HTU21D;33620;52.340;5.984;2023-03-23T08:09:33;11.34;95.07
47861;HTU21D;33620;52.340;5.984;2023-03-23T08:11:58;11.34;94.67
47861;HTU21D;33620;52.340;5.984;2023-03-23T08:14:23;11.45;94.90
47861;HTU21D;33620;52.340;5.984;2023-03-23T08:16:53;11.44;94.63
47861;HTU21D;33620;52.340;5.984;2023-03-23T08:19:21;11.54;94.72
47861;HTU21D;33620;52.340;5.984;2023-03-23T08:21:46;11.55;94.60
47861;HTU21D;33620;52.340;5.984;2023-03-23T08:24:11;11.58;94.51
47861;HTU21D;33620;52.340;5.984;2023-03-23T08:26:38;11.56;93.72
47861;HTU21D;33620;52.340;5.984;2023-03-23T08:29:03;11.46;92.95
47861;HTU21D;33620;52.340;5.984;2023-03-23T08:31:29;11.59;93.09
47861;HTU21D;33620;52.340;5.984;2023-03-23T08:33:54;11.68;93.15
47861;HTU21D;33620;52.340;5.984;2023-03-23T08:36:22;11.63;92.73
47861;HTU21D;33620;52.340;5.984;2023-03-23T08:38:47;11.59;92.27
47861;HTU21D;33620;52.340;5.984;2023-03-23T08:41:12;11.66;92.45
47861;HTU21D;33620;52.340;5.984;2023-03-23T08:43:38;11.66;92.03
47861;HTU21D;33620;52.340;5.984;2023-03-23T08:46:05;11.66;92.34
47861;HTU21D;33620;52.340;5.984;2023-03-23T08:48:34;11.71;92.26
47861;HTU21D;33620;52.340;5.984;2023-03-23T08:51:00;11.76;92.16
47861;HTU21D;33620;52.340;5.984;2023-03-23T08:53:26;11.79;91.89
47861;HTU21D;33620;52.340;5.984;2023-03-23T08:55:55;11.76;91.24
47861;HTU21D;33620;52.340;5.984;2023-03-23T08:58:21;11.77;90.84
47861;HTU21D;33620;52.340;5.984;2023-03-23T09:00:47;11.82;91.21
47861;HTU21D;33620;52.340;5.984;2023-03-23T09:03:13;11.84;91.74
47861;HTU21D;33620;52.340;5.984;2023-03-23T09:05:38;11.89;91.51
47861;HTU21D;33620;52.340;5.984;2023-03-23T09:08:08;11.98;91.63
47861;HTU21D;33620;52.340;5.984;2023-03-23T09:10:33;12.06;91.97
47861;HTU21D;33620;52.340;5.984;2023-03-23T09:12:59;12.05;91.55
47861;HTU21D;33620;52.340;5.984;2023-03-23T09:15:24;12.02;91.02
47861;HTU21D;33620;52.340;5.984;2023-03-23T09:17:50;12.11;91.03
47861;HTU21D;33620;52.340;5.984;2023-03-23T09:20:17;12.11;90.58
47861;HTU21D;33620;52.340;5.984;2023-03-23T09:22:44;12.10;90.50
47861;HTU21D;33620;52.340;5.984;2023-03-23T09:25:11;12.14;90.92
47861;HTU21D;33620;52.340;5.984;2023-03-23T09:27:37;12.06;89.52
47861;HTU21D;33620;52.340;5.984;2023-03-23T09:30:07;12.11;90.36
47861;HTU21D;33620;52.340;5.984;2023-03-23T09:32:34;12.15;90.37
47861;HTU21D;33620;52.340;5.984;2023-03-23T09:35:03;12.18;90.64
47861;HTU21D;33620;52.340;5.984;2023-03-23T09:37:29;12.27;90.82
47861;HTU21D;33620;52.340;5.984;2023-03-23T09:39:54;12.33;89.99
47861;HTU21D;33620;52.340;5.984;2023-03-23T09:53:01;12.69;88.78
47861;HTU21D;33620;52.340;5.984;2023-03-23T09:55:19;12.74;87.38
47861;HTU21D;33620;52.340;5.984;2023-03-23T09:57:59;12.88;87.67
47861;HTU21D;33620;52.340;5.984;2023-03-23T10:00:32;12.92;84.93
47861;HTU21D;33620;52.340;5.984;2023-03-23T10:03:01;12.97;86.09
47861;HTU21D;33620;52.340;5.984;2023-03-23T10:07:56;13.02;83.88
47861;HTU21D;33620;52.340;5.984;2023-03-23T10:10:23;13.10;82.60
47861;HTU21D;33620;52.340;5.984;2023-03-23T10:12:56;13.20;83.33
47861;HTU21D;33620;52.340;5.984;2023-03-23T10:15:27;13.31;81.95
47861;HTU21D;33620;52.340;5.984;2023-03-23T10:25:48;13.29;80.48
47861;HTU21D;33620;52.340;5.984;2023-03-23T10:28:34;13.29;82.36
47861;HTU21D;33620;52.340;5.984;2023-03-23T10:31:00;13.20;79.53
47861;HTU21D;33620;52.340;5.984;2023-03-23T10:33:33;13.29;80.46
47861;HTU21D;33620;52.340;5.984;2023-03-23T10:36:05;13.43;80.41
47861;HTU21D;33620;52.340;5.984;2023-03-23T10:38:42;13.59;79.47
47861;HTU21D;33620;52.340;5.984;2023-03-23T10:41:15;13.90;80.14
47861;HTU21D;33620;52.340;5.984;2023-03-23T10:43:42;13.86;77.79
47861;HTU21D;33620;52.340;5.984;2023-03-23T10:48:53;13.83;75.21
47861;HTU21D;33620;52.340;5.984;2023-03-23T10:51:20;13.70;76.18
47861;HTU21D;33620;52.340;5.984;2023-03-23T10:53:50;13.69;76.99
47861;HTU21D;33620;52.340;5.984;2023-03-23T10:56:23;13.56;77.66
47861;HTU21D;33620;52.340;5.984;2023-03-23T10:58:49;13.55;76.54
47861;HTU21D;33620;52.340;5.984;2023-03-23T11:01:14;13.61;77.65
47861;HTU21D;33620;52.340;5.984;2023-03-23T11:03:44;13.70;78.66
47861;HTU21D;33620;52.340;5.984;2023-03-23T11:06:11;13.70;77.92
47861;HTU21D;33620;52.340;5.984;2023-03-23T11:08:54;13.55;73.71
47861;HTU21D;33620;52.340;5.984;2023-03-23T11:11:26;13.73;74.41
47861;HTU21D;33620;52.340;5.984;2023-03-23T11:14:00;13.79;74.06
47861;HTU21D;33620;52.340;5.984;2023-03-23T11:16:30;13.69;73.35
47861;HTU21D;33620;52.340;5.984;2023-03-23T11:18:56;13.59;71.84
47861;HTU21D;33620;52.340;5.984;2023-03-23T11:21:22;13.65;72.23
47861;HTU21D;33620;52.340;5.984;2023-03-23T11:23:52;13.77;71.75
47861;HTU21D;33620;52.340;5.984;2023-03-23T11:26:22;13.69;69.61
47861;HTU21D;33620;52.340;5.984;2023-03-23T11:28:59;13.93;71.61
47861;HTU21D;33620;52.340;5.984;2023-03-23T11:31:34;13.99;71.00
47861;HTU21D;33620;52.340;5.984;2023-03-23T11:34:05;14.25;71.77
47861;HTU21D;33620;52.340;5.984;2023-03-23T11:36:38;14.09;69.94
47861;HTU21D;33620;52.340;5.984;2023-03-23T11:39:26;14.14;68.97
47861;HTU21D;33620;52.340;5.984;2023-03-23T11:41:49;14.50;71.20
47861;HTU21D;33620;52.340;5.984;2023-03-23T11:44:14;14.75;70.26
47861;HTU21D;33620;52.340;5.984;2023-03-23T11:49:25;15.02;67.14
47861;HTU21D;33620;52.340;5.984;2023-03-23T11:51:54;15.08;60.92
47861;HTU21D;33620;52.340;5.984;2023-03-23T11:56:46;15.14;66.15
47861;HTU21D;33620;52.340;5.984;2023-03-23T11:59:25;15.25;64.87
47861;HTU21D;33620;52.340;5.984;2023-03-23T12:02:00;15.25;66.04
47861;HTU21D;33620;52.340;5.984;2023-03-23T12:24:46;14.83;62.41
47861;HTU21D;33620;52.340;5.984;2023-03-23T12:34:51;14.97;64.01
47861;HTU21D;33620;52.340;5.984;2023-03-23T12:37:31;14.86;63.60
47861;HTU21D;33620;52.340;5.984;2023-03-23T12:42:58;14.22;71.41
47861;HTU21D;33620;52.340;5.984;2023-03-23T12:45:48;14.24;72.33
47861;HTU21D;33620;52.340;5.984;2023-03-23T12:48:26;14.33;74.80
47861;HTU21D;33620;52.340;5.984;2023-03-23T12:53:28;14.64;69.48
47861;HTU21D;33620;52.340;5.984;2023-03-23T12:58:48;14.81;68.49
47861;HTU21D;33620;52.340;5.984;2023-03-23T13:06:19;15.10;66.87
47861;HTU21D;33620;52.340;5.984;2023-03-23T13:08:48;14.98;65.33
47861;HTU21D;33620;52.340;5.984;2023-03-23T13:11:17;14.94;67.56
47861;HTU21D;33620;52.340;5.984;2023-03-23T13:13:48;14.79;65.82
47861;HTU21D;33620;52.340;5.984;2023-03-23T13:22:11;14.59;68.58
47861;HTU21D;33620;52.340;5.984;2023-03-23T13:24:41;14.49;69.32
47861;HTU21D;33620;52.340;5.984;2023-03-23T13:27:08;14.42;69.17
47861;HTU21D;33620;52.340;5.984;2023-03-23T13:29:36;14.56;70.52
47861;HTU21D;33620;52.340;5.984;2023-03-23T13:32:15;14.82;69.53
47861;HTU21D;33620;52.340;5.984;2023-03-23T13:34:41;14.97;68.86
47861;HTU21D;33620;52.340;5.984;2023-03-23T13:39:51;15.31;68.68
47861;HTU21D;33620;52.340;5.984;2023-03-23T13:42:21;15.25;67.97
47861;HTU21D;33620;52.340;5.984;2023-03-23T13:50:10;15.07;69.17
47861;HTU21D;33620;52.340;5.984;2023-03-23T13:57:48;15.30;69.29
47861;HTU21D;33620;52.340;5.984;2023-03-23T14:03:05;15.30;68.87
47861;HTU21D;33620;52.340;5.984;2023-03-23T14:05:36;15.22;69.50
47861;HTU21D;33620;52.340;5.984;2023-03-23T14:08:05;15.16;69.87
47861;HTU21D;33620;52.340;5.984;2023-03-23T14:10:39;15.15;69.96
47861;HTU21D;33620;52.340;5.984;2023-03-23T14:13:05;15.27;70.30
47861;HTU21D;33620;52.340;5.984;2023-03-23T14:15:37;15.25;68.92
47861;HTU21D;33620;52.340;5.984;2023-03-23T14:18:03;15.25;68.44
47861;HTU21D;33620;52.340;5.984;2023-03-23T14:20:30;15.31;69.33
47861;HTU21D;33620;52.340;5.984;2023-03-23T14:22:58;15.28;68.31
47861;HTU21D;33620;52.340;5.984;2023-03-23T14:25:26;15.08;66.80
47861;HTU21D;33620;52.340;5.984;2023-03-23T14:27:51;15.19;67.33
47861;HTU21D;33620;52.340;5.984;2023-03-23T14:30:18;15.30;66.46
47861;HTU21D;33620;52.340;5.984;2023-03-23T14:32:44;15.36;65.84
47861;HTU21D;33620;52.340;5.984;2023-03-23T14:35:43;15.25;65.47
47861;HTU21D;33620;52.340;5.984;2023-03-23T14:38:02;15.31;66.85
47861;HTU21D;33620;52.340;5.984;2023-03-23T14:40:29;15.22;66.24
47861;HTU21D;33620;52.340;5.984;2023-03-23T14:42:55;15.24;66.41
47861;HTU21D;33620;52.340;5.984;2023-03-23T14:45:21;15.19;65.80
47861;HTU21D;33620;52.340;5.984;2023-03-23T14:47:48;14.92;67.82
47861;HTU21D;33620;52.340;5.984;2023-03-23T14:52:48;14.25;75.14
47861;HTU21D;33620;52.340;5.984;2023-03-23T14:55:18;13.80;77.63
47861;HTU21D;33620;52.340;5.984;2023-03-23T14:57:45;13.43;81.83
47861;HTU21D;33620;52.340;5.984;2023-03-23T15:00:25;13.26;82.93
47861;HTU21D;33620;52.340;5.984;2023-03-23T15:02:53;13.15;84.11
47861;HTU21D;33620;52.340;5.984;2023-03-23T15:05:26;13.05;85.03
47861;HTU21D;33620;52.340;5.984;2023-03-23T15:07:53;12.86;85.61
47861;HTU21D;33620;52.340;5.984;2023-03-23T15:10:20;13.08;86.85
47861;HTU21D;33620;52.340;5.984;2023-03-23T15:12:46;13.07;85.84
47861;HTU21D;33620;52.340;5.984;2023-03-23T15:17:44;13.16;85.75
47861;HTU21D;33620;52.340;5.984;2023-03-23T15:20:21;13.30;85.42
47861;HTU21D;33620;52.340;5.984;2023-03-23T15:22:47;13.60;87.85
47861;HTU21D;33620;52.340;5.984;2023-03-23T15:27:49;13.64;85.34
47861;HTU21D;33620;52.340;5.984;2023-03-23T15:32:46;13.90;86.10
47861;HTU21D;33620;52.340;5.984;2023-03-23T15:35:16;13.90;82.65
47861;HTU21D;33620;52.340;5.984;2023-03-23T15:37:43;13.94;82.20
47861;HTU21D;33620;52.340;5.984;2023-03-23T15:40:22;14.15;84.44
47861;HTU21D;33620;52.340;5.984;2023-03-23T15:42:48;14.21;81.48
47861;HTU21D;33620;52.340;5.984;2023-03-23T15:45:23;14.26;83.49
47861;HTU21D;33620;52.340;5.984;2023-03-23T15:47:49;14.20;80.68
47861;HTU21D;33620;52.340;5.984;2023-03-23T15:50:33;14.27;81.39
47861;HTU21D;33620;52.340;5.984;2023-03-23T15:52:59;14.35;80.83
47861;HTU21D;33620;52.340;5.984;2023-03-23T15:55:34;14.27;78.37
47861;HTU21D;33620;52.340;5.984;2023-03-23T15:58:00;14.39;78.66
47861;HTU21D;33620;52.340;5.984;2023-03-23T16:00:26;14.40;77.59
47861;HTU21D;33620;52.340;5.984;2023-03-23T16:02:59;14.50;76.21
47861;HTU21D;33620;52.340;5.984;2023-03-23T16:05:24;14.59;75.83
47861;HTU21D;33620;52.340;5.984;2023-03-23T16:07:50;14.64;75.49
47861;HTU21D;33620;52.340;5.984;2023-03-23T16:10:17;14.81;76.15
47861;HTU21D;33620;52.340;5.984;2023-03-23T16:12:43;14.82;75.03
47861;HTU21D;33620;52.340;5.984;2023-03-23T16:15:08;14.86;77.09
47861;HTU21D;33620;52.340;5.984;2023-03-23T16:17:34;14.86;77.50
47861;HTU21D;33620;52.340;5.984;2023-03-23T16:19:59;14.75;76.18
47861;HTU21D;33620;52.340;5.984;2023-03-23T16:22:24;14.72;77.09
47861;HTU21D;33620;52.340;5.984;2023-03-23T16:24:50;14.83;77.78
47861;HTU21D;33620;52.340;5.984;2023-03-23T16:27:15;14.95;77.27
47861;HTU21D;33620;52.340;5.984;2023-03-23T16:29:41;15.09;76.35
47861;HTU21D;33620;52.340;5.984;2023-03-23T16:32:06;15.06;77.04
47861;HTU21D;33620;52.340;5.984;2023-03-23T16:34:31;14.93;75.92
47861;HTU21D;33620;52.340;5.984;2023-03-23T16:36:59;14.87;76.73
47861;HTU21D;33620;52.340;5.984;2023-03-23T16:39:25;14.78;77.08
47861;HTU21D;33620;52.340;5.984;2023-03-23T16:41:50;14.68;76.21
47861;HTU21D;33620;52.340;5.984;2023-03-23T16:44:15;14.56;75.66
47861;HTU21D;33620;52.340;5.984;2023-03-23T16:46:40;14.51;76.15
47861;HTU21D;33620;52.340;5.984;2023-03-23T16:49:06;14.45;76.79
47861;HTU21D;33620;52.340;5.984;2023-03-23T16:51:31;14.42;76.70
47861;HTU21D;33620;52.340;5.984;2023-03-23T16:53:56;14.40;76.44
47861;HTU21D;33620;52.340;5.984;2023-03-23T16:56:22;14.38;76.73
47861;HTU21D;33620;52.340;5.984;2023-03-23T16:58:47;14.34;76.22
47861;HTU21D;33620;52.340;5.984;2023-03-23T17:01:12;14.33;76.14
47861;HTU21D;33620;52.340;5.984;2023-03-23T17:03:38;14.33;76.09
47861;HTU21D;33620;52.340;5.984;2023-03-23T17:06:03;14.34;76.50
47861;HTU21D;33620;52.340;5.984;2023-03-23T17:08:29;14.36;77.42
47861;HTU21D;33620;52.340;5.984;2023-03-23T17:10:55;14.36;77.68
47861;HTU21D;33620;52.340;5.984;2023-03-23T17:13:21;14.34;76.55
47861;HTU21D;33620;52.340;5.984;2023-03-23T17:15:46;14.32;76.32
47861;HTU21D;33620;52.340;5.984;2023-03-23T17:18:15;14.32;76.83
47861;HTU21D;33620;52.340;5.984;2023-03-23T17:20:41;14.29;76.66
47861;HTU21D;33620;52.340;5.984;2023-03-23T17:23:07;14.30;77.52
47861;HTU21D;33620;52.340;5.984;2023-03-23T17:25:32;14.29;78.16
47861;HTU21D;33620;52.340;5.984;2023-03-23T17:27:57;14.28;78.89
47861;HTU21D;33620;52.340;5.984;2023-03-23T17:30:23;14.27;78.77